Time;durP1;ratioP1;P1;durP2;ratioP2;P2;SDS_P1;SDS_P2;PMS_P1;PMS_P2;Temp;Humidity;BMP_temperature;BMP_pressure;BME280_temperature;BME280_humidity;BME280_pressure;Samples;Min_cycle;Max_cycle;Signal;HPM_P1;HPM_P2
2021/09/29 00:02:08;;;;;;;13.20;9.87;;;15.20;99.90;;;;;;5012206;28;20491;-49
2021/09/29 00:04:34;;;;;;;15.77;9.63;;;15.10;99.90;;;;;;5012260;28;20443;-49
2021/09/29 00:07:01;;;;;;;12.00;9.07;;;15.10;99.90;;;;;;5012393;28;20456;-49
2021/09/29 00:09:28;;;;;;;13.77;9.40;;;15.20;99.90;;;;;;5011645;28;20430;-51
2021/09/29 00:11:54;;;;;;;9.30;7.77;;;15.20;99.90;;;;;;5011865;28;20483;-49
2021/09/29 00:14:22;;;;;;;12.43;9.10;;;15.20;99.90;;;;;;5011956;28;20444;-49
2021/09/29 00:16:49;;;;;;;11.33;7.83;;;15.20;99.90;;;;;;5011984;28;20441;-49
2021/09/29 00:19:15;;;;;;;9.07;7.53;;;15.20;99.90;;;;;;5011533;28;20428;-49
2021/09/29 00:21:42;;;;;;;14.13;7.80;;;15.20;99.90;;;;;;5011992;28;20432;-51
2021/09/29 00:24:09;;;;;;;14.20;8.87;;;15.20;99.90;;;;;;5011950;28;20441;-50
2021/09/29 00:26:35;;;;;;;12.60;8.10;;;15.20;99.90;;;;;;5011861;28;20419;-48
2021/09/29 00:29:02;;;;;;;11.10;9.27;;;15.20;99.90;;;;;;5011449;28;20452;-48
2021/09/29 00:31:35;;;;;;;12.30;7.63;;;15.20;99.90;;;;;;5012089;28;20925;-50
2021/09/29 00:34:08;;;;;;;11.97;7.97;;;15.20;99.90;;;;;;5014725;28;20443;-49
2021/09/29 00:36:35;;;;;;;14.90;8.20;;;15.10;99.90;;;;;;5011986;28;20442;-49
2021/09/29 00:39:02;;;;;;;11.87;7.70;;;15.20;99.90;;;;;;5011408;28;20459;-49
2021/09/29 00:41:28;;;;;;;11.40;8.33;;;15.00;99.90;;;;;;5012103;28;20534;-50
2021/09/29 00:43:55;;;;;;;8.20;7.13;;;15.10;99.90;;;;;;5011826;28;20436;-49
2021/09/29 00:46:22;;;;;;;11.27;9.20;;;14.80;99.90;;;;;;5011827;28;20436;-49
2021/09/29 00:48:50;;;;;;;12.03;8.90;;;15.10;99.90;;;;;;5011209;28;20984;-50
2021/09/29 00:51:17;;;;;;;13.47;9.63;;;15.10;99.90;;;;;;5011786;28;20433;-48
2021/09/29 00:53:45;;;;;;;13.77;9.40;;;14.90;99.90;;;;;;5011576;28;20479;-49
2021/09/29 00:56:12;;;;;;;12.70;9.30;;;15.00;99.90;;;;;;5011668;28;20440;-49
2021/09/29 00:58:39;;;;;;;18.60;8.53;;;15.00;99.90;;;;;;5011660;28;20474;-49
2021/09/29 01:01:06;;;;;;;13.30;8.87;;;15.00;99.90;;;;;;5010246;28;20440;-50
2021/09/29 01:03:33;;;;;;;10.17;8.30;;;15.00;99.90;;;;;;5011570;28;20892;-50
2021/09/29 01:06:06;;;;;;;12.27;8.70;;;15.00;99.90;;;;;;5015026;28;20443;-50
2021/09/29 01:08:40;;;;;;;12.63;8.43;;;14.90;99.90;;;;;;5014964;28;20462;-50
2021/09/29 01:11:13;;;;;;;9.67;8.10;;;14.90;99.90;;;;;;5015375;28;20527;-50
2021/09/29 01:13:47;;;;;;;10.53;8.70;;;14.90;99.90;;;;;;5015151;28;20461;-50
2021/09/29 01:16:14;;;;;;;10.40;8.90;;;14.80;99.90;;;;;;5015227;28;20433;-50
2021/09/29 01:18:43;;;;;;;12.00;8.80;;;14.80;99.90;;;;;;5014643;28;20461;-49
2021/09/29 01:21:13;;;;;;;17.77;9.27;;;14.90;99.90;;;;;;5014992;28;20436;-49
2021/09/29 01:23:52;;;;;;;13.67;9.27;;;14.80;99.90;;;;;;5013639;28;20475;-49
2021/09/29 01:26:23;;;;;;;12.27;9.27;;;14.80;99.90;;;;;;5014966;28;20440;-50
2021/09/29 01:28:52;;;;;;;13.70;8.53;;;14.90;99.90;;;;;;5014554;28;20456;-50
2021/09/29 01:31:21;;;;;;;16.77;9.10;;;14.80;99.90;;;;;;5014935;28;20816;-49
2021/09/29 01:33:48;;;;;;;11.40;8.93;;;14.80;99.90;;;;;;5014980;28;20491;-49
2021/09/29 01:36:18;;;;;;;11.33;8.30;;;14.80;99.90;;;;;;5014819;28;20447;-50
2021/09/29 01:38:47;;;;;;;12.73;9.23;;;14.80;99.90;;;;;;5014517;28;20544;-50
2021/09/29 01:41:14;;;;;;;14.10;9.77;;;14.30;99.90;;;;;;5014768;28;20445;-50
2021/09/29 01:43:42;;;;;;;14.87;9.53;;;14.70;99.90;;;;;;5014555;28;20800;-50
2021/09/29 01:46:09;;;;;;;15.93;8.87;;;14.70;99.90;;;;;;5014497;28;20442;-49
2021/09/29 01:48:45;;;;;;;14.57;10.10;;;14.50;99.90;;;;;;5015739;28;20456;-50
2021/09/29 01:51:12;;;;;;;13.63;8.57;;;14.60;99.90;;;;;;5019218;28;20443;-50
2021/09/29 01:53:39;;;;;;;14.30;8.80;;;14.60;99.90;;;;;;5014606;28;20526;-50
2021/09/29 01:56:07;;;;;;;12.90;8.73;;;14.70;99.90;;;;;;5014286;28;20440;-49
2021/09/29 01:58:34;;;;;;;13.43;9.10;;;14.50;99.90;;;;;;5013850;28;20479;-49
2021/09/29 02:01:02;;;;;;;13.53;10.50;;;14.80;99.90;;;;;;5014446;28;20448;-50
2021/09/29 02:03:29;;;;;;;12.67;8.70;;;14.80;99.90;;;;;;5014588;28;20454;-50
2021/09/29 02:05:56;;;;;;;15.40;9.90;;;14.60;99.90;;;;;;5014317;28;20409;-49
2021/09/29 02:08:22;;;;;;;10.83;8.87;;;14.90;99.90;;;;;;5013664;28;20439;-49
2021/09/29 02:10:49;;;;;;;12.40;8.93;;;14.40;99.90;;;;;;5014485;28;20482;-50
2021/09/29 02:13:16;;;;;;;13.80;9.10;;;15.00;99.90;;;;;;5014087;28;20487;-49
2021/09/29 02:15:43;;;;;;;12.33;8.70;;;14.80;99.90;;;;;;5013995;28;20938;-49
2021/09/29 02:18:10;;;;;;;14.00;9.80;;;14.80;99.90;;;;;;5013540;28;20434;-49
2021/09/29 02:20:37;;;;;;;13.13;9.57;;;15.10;99.90;;;;;;5014062;28;20408;-49
2021/09/29 02:23:04;;;;;;;14.30;9.40;;;14.70;99.90;;;;;;5013871;28;20860;-49
2021/09/29 02:25:30;;;;;;;11.97;7.67;;;15.10;99.90;;;;;;5013946;28;20785;-49
2021/09/29 02:27:57;;;;;;;12.30;8.17;;;15.10;99.90;;;;;;5013393;28;20574;-49
2021/09/29 02:30:23;;;;;;;10.83;8.40;;;15.10;99.90;;;;;;5013892;28;20440;-49
2021/09/29 02:32:50;;;;;;;12.80;8.23;;;15.20;99.90;;;;;;5013654;28;20451;-49
2021/09/29 02:35:18;;;;;;;9.60;8.50;;;15.00;99.90;;;;;;5013629;28;20407;-49
2021/09/29 02:37:45;;;;;;;18.10;9.63;;;15.20;99.90;;;;;;5013180;28;21018;-49
2021/09/29 02:40:13;;;;;;;16.47;10.27;;;15.30;99.90;;;;;;5013931;28;20529;-49
2021/09/29 02:42:39;;;;;;;14.23;9.90;;;15.30;99.90;;;;;;5013634;28;20484;-49
2021/09/29 02:45:07;;;;;;;11.80;9.13;;;15.20;99.90;;;;;;5013795;28;20463;-49
2021/09/29 02:47:33;;;;;;;15.43;10.40;;;15.30;99.90;;;;;;5013325;28;20442;-49
2021/09/29 02:50:00;;;;;;;15.37;11.10;;;15.30;99.90;;;;;;5012942;28;20464;-49
2021/09/29 02:52:28;;;;;;;18.40;11.57;;;15.30;99.90;;;;;;5013373;28;20436;-49
2021/09/29 02:54:55;;;;;;;18.23;11.80;;;15.30;99.90;;;;;;5013574;28;20434;-49
2021/09/29 02:57:21;;;;;;;26.90;13.00;;;15.30;99.90;;;;;;5013410;28;20478;-49
2021/09/29 02:59:48;;;;;;;19.53;12.47;;;15.20;99.90;;;;;;5013136;28;20923;-49
2021/09/29 03:02:14;;;;;;;18.53;12.40;;;15.30;99.90;;;;;;5013441;28;20972;-49
2021/09/29 03:04:41;;;;;;;24.67;13.03;;;15.30;99.90;;;;;;5013654;28;20810;-49
2021/09/29 03:07:08;;;;;;;23.57;12.83;;;15.30;99.90;;;;;;5016085;28;20435;-49
2021/09/29 03:09:37;;;;;;;24.67;12.83;;;15.20;99.90;;;;;;5014383;28;20780;-49
2021/09/29 03:12:05;;;;;;;21.77;12.80;;;15.20;99.90;;;;;;5011937;28;20818;-50
2021/09/29 03:14:32;;;;;;;24.33;13.57;;;15.30;99.90;;;;;;5013062;28;21059;-50
2021/09/29 03:16:58;;;;;;;29.07;13.23;;;15.30;99.90;;;;;;5012790;28;20976;-50
2021/09/29 03:19:26;;;;;;;29.20;14.87;;;15.20;99.90;;;;;;5012608;28;20411;-50
2021/09/29 03:21:53;;;;;;;28.83;14.03;;;15.30;99.90;;;;;;5013739;28;20860;-50
2021/09/29 03:24:20;;;;;;;30.63;14.47;;;15.30;99.90;;;;;;5014696;28;20440;-50
2021/09/29 03:26:49;;;;;;;34.90;14.63;;;15.30;99.90;;;;;;5014125;28;20523;-50
2021/09/29 03:29:16;;;;;;;27.27;15.87;;;15.30;99.90;;;;;;5013931;28;20433;-50
2021/09/29 03:31:43;;;;;;;33.30;15.47;;;15.30;99.90;;;;;;5013219;28;20938;-50
2021/09/29 03:34:10;;;;;;;42.77;17.77;;;15.30;99.90;;;;;;5011497;28;20843;-50
2021/09/29 03:36:39;;;;;;;35.27;15.70;;;15.30;99.90;;;;;;5012754;28;20439;-50
2021/09/29 03:39:06;;;;;;;35.40;15.80;;;15.10;99.90;;;;;;5012657;28;20436;-50
2021/09/29 03:41:33;;;;;;;39.70;17.63;;;15.30;99.90;;;;;;5012682;28;20551;-50
2021/09/29 03:44:01;;;;;;;36.00;16.57;;;15.30;99.90;;;;;;5012609;28;20425;-50
2021/09/29 03:46:28;;;;;;;41.77;17.83;;;15.40;99.90;;;;;;5012298;28;20433;-49
2021/09/29 03:48:55;;;;;;;41.03;16.57;;;15.40;99.90;;;;;;5011943;28;20931;-50
2021/09/29 03:51:21;;;;;;;42.27;18.30;;;15.40;99.90;;;;;;5012807;28;20436;-50
2021/09/29 03:53:48;;;;;;;38.00;17.33;;;15.40;99.90;;;;;;5012490;28;20845;-50
2021/09/29 03:56:14;;;;;;;42.00;19.73;;;15.40;99.90;;;;;;5012657;28;20432;-50
2021/09/29 03:58:41;;;;;;;34.20;16.10;;;15.40;99.90;;;;;;5011706;28;20548;-50
2021/09/29 04:01:09;;;;;;;35.67;18.70;;;15.40;99.90;;;;;;5012459;28;20823;-50
2021/09/29 04:03:36;;;;;;;45.00;19.43;;;15.50;99.90;;;;;;5012216;28;20523;-50
2021/09/29 04:06:02;;;;;;;41.50;19.23;;;15.50;99.90;;;;;;5012293;28;20443;-50
2021/09/29 04:08:29;;;;;;;38.57;20.37;;;15.50;99.90;;;;;;5011793;28;20791;-50
2021/09/29 04:10:56;;;;;;;41.57;20.30;;;15.60;99.90;;;;;;5012114;28;20434;-50
2021/09/29 04:13:23;;;;;;;35.63;18.77;;;15.60;99.90;;;;;;5011867;28;20535;-50
2021/09/29 04:15:50;;;;;;;44.00;22.50;;;15.60;99.90;;;;;;5011564;28;20433;-50
2021/09/29 04:18:18;;;;;;;40.37;19.37;;;15.80;99.90;;;;;;5011553;28;20450;-50
2021/09/29 04:20:44;;;;;;;51.23;21.80;;;15.60;99.90;;;;;;5011722;28;20839;-50
2021/09/29 04:23:11;;;;;;;51.60;22.63;;;15.70;99.90;;;;;;5012320;28;20448;-50
2021/09/29 04:25:39;;;;;;;53.23;24.47;;;15.70;99.90;;;;;;5016033;28;20917;-50
2021/09/29 04:28:06;;;;;;;63.63;23.40;;;15.70;99.90;;;;;;5011503;28;20479;-49
2021/09/29 04:30:32;;;;;;;65.20;26.13;;;15.70;99.90;;;;;;5011852;28;20947;-50
2021/09/29 04:33:00;;;;;;;51.70;24.90;;;15.70;99.90;;;;;;5011573;28;20933;-50
2021/09/29 04:35:28;;;;;;;61.03;25.90;;;16.00;99.90;;;;;;5011731;28;20446;-50
2021/09/29 04:37:55;;;;;;;64.03;25.03;;;15.70;99.90;;;;;;5011182;28;20463;-50
2021/09/29 04:40:22;;;;;;;57.23;23.90;;;15.70;99.90;;;;;;5014328;28;20486;-50
2021/09/29 04:42:49;;;;;;;65.77;27.90;;;15.70;99.90;;;;;;5015521;28;20957;-50
2021/09/29 04:45:16;;;;;;;52.20;25.07;;;15.70;99.90;;;;;;5015867;28;20424;-50
2021/09/29 04:47:42;;;;;;;57.80;26.20;;;15.70;99.90;;;;;;5015251;28;20455;-50
2021/09/29 04:50:10;;;;;;;52.60;24.83;;;15.80;99.90;;;;;;5015421;28;20448;-50
2021/09/29 04:52:38;;;;;;;50.60;22.67;;;15.80;99.90;;;;;;5015324;28;20436;-50
2021/09/29 04:55:05;;;;;;;62.60;26.77;;;15.80;99.90;;;;;;5015297;28;21018;-50
2021/09/29 04:57:32;;;;;;;58.60;25.40;;;15.80;99.90;;;;;;5015207;28;20824;-50
2021/09/29 04:59:59;;;;;;;54.67;26.83;;;15.80;99.90;;;;;;5014897;28;20495;-50
2021/09/29 05:02:26;;;;;;;47.83;23.90;;;15.80;99.90;;;;;;5015162;28;20427;-50
2021/09/29 05:04:52;;;;;;;55.23;25.50;;;15.90;99.90;;;;;;5015298;28;20437;-50
2021/09/29 05:07:21;;;;;;;61.37;26.77;;;15.90;99.90;;;;;;5014546;28;21016;-50
2021/09/29 05:09:50;;;;;;;52.30;25.33;;;15.90;99.90;;;;;;5014659;28;20446;-49
2021/09/29 05:12:25;;;;;;;50.80;23.70;;;15.90;99.90;;;;;;5015102;28;20432;-49
2021/09/29 05:14:52;;;;;;;60.67;25.87;;;15.90;99.90;;;;;;5014698;28;20539;-49
2021/09/29 05:17:18;;;;;;;46.30;24.80;;;15.90;99.90;;;;;;5014643;28;20449;-50
2021/09/29 05:19:45;;;;;;;55.00;27.00;;;15.90;99.90;;;;;;5014002;28;20502;-50
2021/09/29 05:22:12;;;;;;;52.20;25.43;;;15.90;99.90;;;;;;5014491;28;20467;-50
2021/09/29 05:24:38;;;;;;;47.17;24.40;;;15.90;99.90;;;;;;5014624;28;20436;-50
2021/09/29 05:27:07;;;;;;;47.20;22.83;;;16.00;99.90;;;;;;5013956;28;20456;-49
2021/09/29 05:29:35;;;;;;;47.47;22.90;;;16.00;99.90;;;;;;5014298;28;20457;-49
2021/09/29 05:32:03;;;;;;;50.73;25.57;;;16.10;99.90;;;;;;5014528;28;20437;-49
2021/09/29 05:34:29;;;;;;;47.47;24.40;;;16.00;99.90;;;;;;5012869;28;20480;-49
2021/09/29 05:36:56;;;;;;;51.97;25.97;;;16.00;99.90;;;;;;5013885;28;20440;-56
2021/09/29 05:39:23;;;;;;;48.47;25.33;;;15.80;99.90;;;;;;5013437;28;20528;-50
2021/09/29 05:41:50;;;;;;;57.60;25.30;;;16.00;99.90;;;;;;5015096;28;20893;-50
2021/09/29 05:44:18;;;;;;;52.37;25.63;;;16.00;99.90;;;;;;5015073;28;20472;-50
2021/09/29 05:46:45;;;;;;;61.83;26.50;;;16.00;99.90;;;;;;5011994;28;20459;-50
2021/09/29 05:49:12;;;;;;;57.80;27.47;;;16.10;99.90;;;;;;5012566;28;20533;-50
2021/09/29 05:51:39;;;;;;;54.20;25.70;;;16.10;99.90;;;;;;5013402;28;20435;-50
2021/09/29 05:54:05;;;;;;;57.60;25.57;;;16.10;99.90;;;;;;5013767;28;20479;-50
2021/09/29 05:56:32;;;;;;;52.70;25.47;;;16.10;99.90;;;;;;5013618;28;20445;-50
2021/09/29 05:58:59;;;;;;;53.80;25.50;;;16.10;99.90;;;;;;5013437;28;20478;-50
2021/09/29 06:01:27;;;;;;;51.30;26.17;;;16.20;99.90;;;;;;5014130;28;20539;-49
2021/09/29 06:03:54;;;;;;;52.00;26.40;;;16.60;99.90;;;;;;5014102;28;20451;-49
2021/09/29 06:06:20;;;;;;;46.50;23.37;;;16.20;99.90;;;;;;5013972;28;20432;-49
2021/09/29 06:08:47;;;;;;;50.50;25.77;;;15.80;99.90;;;;;;5013145;28;20574;-49
2021/09/29 06:11:13;;;;;;;46.90;23.80;;;16.20;99.90;;;;;;5013832;28;20832;-50
2021/09/29 06:13:40;;;;;;;55.67;25.70;;;16.20;99.90;;;;;;5013311;28;20954;-50
2021/09/29 06:16:09;;;;;;;44.57;24.67;;;16.20;99.90;;;;;;5013413;28;20520;-49
2021/09/29 06:18:38;;;;;;;46.20;24.97;;;16.20;99.90;;;;;;5013490;28;20503;-50
2021/09/29 06:24:51;;;;;;;52.90;28.50;;;16.20;99.90;;;;;;5013923;28;20420;-50
2021/09/29 06:27:18;;;;;;;52.63;27.77;;;16.10;99.90;;;;;;5013011;28;20522;-50
2021/09/29 06:29:45;;;;;;;48.53;26.27;;;16.30;99.90;;;;;;5012917;28;20829;-50
2021/09/29 06:32:11;;;;;;;43.30;26.83;;;16.30;99.90;;;;;;5013862;28;20768;-49
2021/09/29 06:34:50;;;;;;;46.30;27.57;;;16.30;99.90;;;;;;5013570;28;20489;-49
2021/09/29 06:37:17;;;;;;;42.90;25.40;;;16.40;99.90;;;;;;5013774;28;20462;-50
2021/09/29 06:39:44;;;;;;;49.90;26.73;;;16.40;99.90;;;;;;5013875;28;20445;-49
2021/09/29 06:42:10;;;;;;;50.00;28.30;;;16.40;99.90;;;;;;5013592;28;20428;-49
2021/09/29 06:44:37;;;;;;;46.70;29.27;;;16.40;99.90;;;;;;5012882;28;20512;-50
2021/09/29 06:47:04;;;;;;;51.20;29.13;;;16.50;99.90;;;;;;5013114;28;20461;-50
2021/09/29 06:49:31;;;;;;;47.67;30.03;;;16.50;99.90;;;;;;5012301;28;20440;-50
2021/09/29 06:51:59;;;;;;;51.90;30.70;;;16.80;99.90;;;;;;5012853;28;20418;-50
2021/09/29 06:54:26;;;;;;;57.77;31.90;;;16.60;99.90;;;;;;5013265;28;20528;-50
2021/09/29 06:56:52;;;;;;;51.27;28.37;;;16.60;99.90;;;;;;5013130;28;20439;-50
2021/09/29 06:59:20;;;;;;;49.97;29.80;;;16.60;99.90;;;;;;5035797;22;20497;-51
2021/09/29 07:01:47;;;;;;;52.63;31.80;;;16.60;99.90;;;;;;5011723;28;20477;-52
2021/09/29 07:04:14;;;;;;;52.73;30.80;;;16.70;99.90;;;;;;5012240;28;20465;-51
2021/09/29 07:06:41;;;;;;;49.20;29.73;;;16.70;99.90;;;;;;5012671;28;20444;-51
2021/09/29 07:09:09;;;;;;;48.03;29.57;;;17.30;99.90;;;;;;5011832;28;20452;-56
2021/09/29 07:11:36;;;;;;;58.17;30.80;;;16.70;99.90;;;;;;5012135;28;20433;-53
2021/09/29 07:14:03;;;;;;;51.23;30.60;;;17.00;99.90;;;;;;5010536;28;20472;-52
2021/09/29 07:16:29;;;;;;;46.83;29.33;;;17.20;99.90;;;;;;5012656;28;20433;-52
2021/09/29 07:19:01;;;;;;;51.27;30.10;;;16.80;99.90;;;;;;5011964;28;20528;-52
2021/09/29 07:21:28;;;;;;;45.17;29.17;;;16.80;99.90;;;;;;5011808;28;20557;-52
2021/09/29 07:23:54;;;;;;;51.63;30.07;;;16.60;99.90;;;;;;5012450;28;20816;-52
2021/09/29 07:26:22;;;;;;;42.60;28.13;;;16.90;99.90;;;;;;5012474;28;20434;-51
2021/09/29 07:28:49;;;;;;;43.60;27.50;;;16.60;99.90;;;;;;5011383;28;20510;-51
2021/09/29 07:31:17;;;;;;;49.83;29.70;;;17.10;99.90;;;;;;5011685;28;20445;-51
2021/09/29 07:33:43;;;;;;;40.37;27.73;;;17.00;99.90;;;;;;5012005;28;20450;-52
2021/09/29 07:36:11;;;;;;;47.10;29.63;;;17.00;99.90;;;;;;5012472;28;20751;-51
2021/09/29 07:38:39;;;;;;;40.97;28.00;;;17.00;99.90;;;;;;5011197;28;20458;-51
2021/09/29 07:41:06;;;;;;;42.30;28.40;;;17.00;99.90;;;;;;5012223;28;20438;-51
2021/09/29 07:43:34;;;;;;;44.70;27.80;;;17.00;99.90;;;;;;5011743;28;20434;-51
2021/09/29 07:46:01;;;;;;;40.00;28.73;;;17.00;99.90;;;;;;5011992;28;20436;-51
2021/09/29 07:48:27;;;;;;;39.70;26.47;;;17.50;99.90;;;;;;5011578;28;20504;-52
2021/09/29 07:50:54;;;;;;;44.80;28.17;;;16.70;99.90;;;;;;5011611;28;20495;-52
2021/09/29 07:53:24;;;;;;;44.27;28.63;;;17.00;99.90;;;;;;5011606;28;20467;-51
2021/09/29 07:55:51;;;;;;;43.37;26.90;;;17.10;99.90;;;;;;5012407;28;20519;-52
2021/09/29 07:58:18;;;;;;;41.30;27.87;;;17.10;99.90;;;;;;5011484;28;20466;-51
2021/09/29 08:00:46;;;;;;;47.73;28.47;;;17.20;99.90;;;;;;5011997;28;20463;-52
2021/09/29 08:03:28;;;;;;;42.60;27.53;;;17.20;99.90;;;;;;5011432;28;20950;-52
2021/09/29 08:06:00;;;;;;;36.33;27.10;;;17.20;99.90;;;;;;5011581;28;20441;-53
2021/09/29 08:08:26;;;;;;;45.90;27.67;;;17.20;99.90;;;;;;5011184;28;20455;-52
2021/09/29 08:10:53;;;;;;;42.10;27.53;;;17.20;99.90;;;;;;5011606;28;20447;-52
2021/09/29 08:13:20;;;;;;;41.23;28.50;;;17.20;99.90;;;;;;5011052;28;20435;-51
2021/09/29 08:15:48;;;;;;;43.30;27.53;;;17.40;99.90;;;;;;5011620;28;20489;-52
2021/09/29 08:18:14;;;;;;;42.73;28.37;;;17.20;99.90;;;;;;5010684;28;20462;-52
2021/09/29 08:20:42;;;;;;;36.13;26.30;;;17.10;99.90;;;;;;5011201;28;20447;-52
2021/09/29 08:23:12;;;;;;;43.63;28.13;;;17.20;99.90;;;;;;5011659;28;20485;-52
2021/09/29 08:28:33;;;;;;;47.53;29.30;;;17.20;99.90;;;;;;5010960;28;20499;-51
2021/09/29 08:31:07;;;;;;;42.33;29.80;;;17.20;99.90;;;;;;5011625;28;20443;-51
2021/09/29 08:33:51;;;;;;;39.40;28.33;;;17.20;99.90;;;;;;5011770;28;20488;-51
2021/09/29 08:36:23;;;;;;;42.07;29.70;;;17.20;99.90;;;;;;5009995;28;20835;-52
2021/09/29 08:38:53;;;;;;;45.17;32.60;;;17.20;99.90;;;;;;5010802;28;20450;-52
2021/09/29 08:41:36;;;;;;;42.97;31.10;;;17.20;99.90;;;;;;5011134;28;20815;-51
2021/09/29 08:44:06;;;;;;;42.50;29.73;;;17.20;99.90;;;;;;5010914;28;20451;-52
2021/09/29 08:46:45;;;;;;;44.83;30.83;;;17.20;99.90;;;;;;5011289;28;20849;-51
2021/09/29 08:49:18;;;;;;;47.63;32.57;;;17.20;99.90;;;;;;5010748;28;20514;-52
2021/09/29 08:52:05;;;;;;;50.90;32.83;;;17.20;99.90;;;;;;5011136;28;20437;-51
2021/09/29 08:54:50;;;;;;;45.93;34.17;;;17.20;99.90;;;;;;5011382;28;20533;-51
2021/09/29 09:16:59;;;;;;;47.40;32.97;;;17.20;99.90;;;;;;4969679;28;20856;-52
2021/09/29 09:19:29;;;;;;;49.90;34.60;;;17.30;99.90;;;;;;4993402;28;20477;-52
2021/09/29 09:21:59;;;;;;;53.10;35.87;;;17.20;99.90;;;;;;5009385;28;20503;-53
2021/09/29 09:24:28;;;;;;;47.33;32.67;;;17.30;99.90;;;;;;4999842;28;20453;-53
2021/09/29 09:26:59;;;;;;;49.03;34.93;;;17.30;99.90;;;;;;5004424;28;20442;-52
2021/09/29 09:29:27;;;;;;;51.73;35.47;;;17.30;99.90;;;;;;5033707;28;20458;-53
2021/09/29 09:31:54;;;;;;;50.70;35.53;;;17.30;99.90;;;;;;4999202;28;20546;-53
2021/09/29 09:34:21;;;;;;;54.67;36.60;;;17.20;99.90;;;;;;4994633;28;20443;-51
2021/09/29 09:36:50;;;;;;;55.40;35.20;;;17.20;99.90;;;;;;4994963;28;20455;-52
2021/09/29 09:39:22;;;;;;;59.10;39.47;;;17.20;99.90;;;;;;5000394;28;20478;-51
2021/09/29 09:41:54;;;;;;;55.33;36.87;;;17.20;99.90;;;;;;5014901;28;20445;-53
2021/09/29 09:44:23;;;;;;;58.70;36.87;;;17.20;99.90;;;;;;5016513;28;20454;-53
2021/09/29 09:46:59;;;;;;;55.70;36.10;;;17.20;99.90;;;;;;5013112;28;20468;-54
2021/09/29 09:49:26;;;;;;;53.53;34.90;;;17.20;99.90;;;;;;5012647;28;20477;-53
2021/09/29 09:51:57;;;;;;;56.70;34.43;;;17.20;99.90;;;;;;5014231;28;20459;-53
2021/09/29 09:54:34;;;;;;;60.80;38.50;;;17.20;99.90;;;;;;5014279;28;20502;-52
2021/09/29 09:57:00;;;;;;;54.97;35.60;;;17.30;99.90;;;;;;5012418;28;20935;-53
2021/09/29 09:59:30;;;;;;;52.33;35.00;;;17.30;99.90;;;;;;5013349;28;20504;-53
2021/09/29 10:01:57;;;;;;;60.23;42.73;;;17.30;99.90;;;;;;5012631;28;20500;-53
2021/09/29 10:04:23;;;;;;;56.90;39.93;;;17.40;99.90;;;;;;5014048;28;20538;-53
2021/09/29 10:06:50;;;;;;;59.47;36.67;;;17.40;99.90;;;;;;5014162;28;20533;-53
2021/09/29 10:09:35;;;;;;;56.63;37.20;;;17.40;99.90;;;;;;5013308;28;20471;-52
2021/09/29 10:12:18;;;;;;;52.33;36.30;;;17.40;99.90;;;;;;5013782;28;20425;-52
2021/09/29 10:23:19;;;;;;;53.47;36.80;;;17.50;99.90;;;;;;5013779;28;20532;-53
2021/09/29 10:26:14;;;;;;;48.53;33.33;;;17.60;99.90;;;;;;5013563;28;20438;-53
2021/09/29 10:28:43;;;;;;;45.90;33.20;;;17.60;99.90;;;;;;5011646;28;20474;-53
2021/09/29 10:31:23;;;;;;;48.40;33.40;;;17.60;99.90;;;;;;5006535;28;20456;-53
2021/09/29 10:33:57;;;;;;;52.87;32.87;;;17.60;99.90;;;;;;4993901;28;20869;-52
2021/09/29 10:36:39;;;;;;;43.17;32.63;;;17.60;99.90;;;;;;4992937;28;20486;-51
2021/09/29 10:42:08;;;;;;;41.20;30.03;;;17.50;99.90;;;;;;4991986;28;20440;-52
2021/09/29 10:47:34;;;;;;;30.87;25.93;;;17.50;99.90;;;;;;4993695;28;20805;-52
2021/09/29 10:50:41;;;;;;;36.47;27.70;;;17.50;99.90;;;;;;4993319;28;20441;-52
2021/09/29 11:29:48;;;;;;;28.70;20.57;;;17.40;99.90;;;;;;4996051;28;20476;-51
2021/09/29 11:32:24;;;;;;;24.67;19.83;;;17.40;99.90;;;;;;5012378;28;20455;-51
2021/09/29 11:34:52;;;;;;;23.13;20.80;;;17.40;99.90;;;;;;5012071;28;20851;-52
2021/09/29 12:08:30;;;;;;;18.90;16.37;;;17.20;99.90;;;;;;5009742;28;21017;-53
2021/09/29 12:11:02;;;;;;;18.90;16.90;;;17.20;99.90;;;;;;5011785;28;20451;-53
2021/09/29 12:13:42;;;;;;;19.53;17.17;;;17.20;99.90;;;;;;5011835;28;20446;-51
2021/09/29 12:16:09;;;;;;;22.33;16.90;;;17.20;99.90;;;;;;5011380;28;20476;-52
2021/09/29 12:18:36;;;;;;;21.90;18.47;;;17.20;99.90;;;;;;5010762;28;20456;-51
2021/09/29 12:21:05;;;;;;;22.70;17.53;;;17.20;99.90;;;;;;5009549;28;20462;-52
2021/09/29 12:23:32;;;;;;;26.37;21.57;;;17.40;99.90;;;;;;5011235;28;20546;-52
2021/09/29 12:29:09;;;;;;;21.60;16.80;;;17.60;99.90;;;;;;5010632;28;20651;-53
2021/09/29 12:34:25;;;;;;;24.47;19.93;;;17.90;99.90;;;;;;5008451;28;20453;-51
2021/09/29 12:36:53;;;;;;;22.70;19.60;;;18.00;99.90;;;;;;5010739;28;20864;-51
2021/09/29 12:39:25;;;;;;;25.20;19.40;;;18.10;99.90;;;;;;5010694;28;20826;-52
2021/09/29 12:41:56;;;;;;;29.27;21.37;;;18.20;99.90;;;;;;5010819;28;20849;-52
2021/09/29 12:44:22;;;;;;;23.10;20.63;;;18.20;99.90;;;;;;5011169;28;20432;-52
2021/09/29 12:47:04;;;;;;;24.17;21.57;;;18.30;99.90;;;;;;5011722;28;20431;-52
2021/09/29 12:49:31;;;;;;;22.03;19.60;;;18.30;99.90;;;;;;5010036;28;20469;-52
2021/09/29 12:52:06;;;;;;;27.70;22.10;;;18.40;99.90;;;;;;5011070;28;20440;-52
2021/09/29 12:54:33;;;;;;;25.17;22.47;;;18.40;99.90;;;;;;5009797;28;20970;-52
2021/09/29 12:57:00;;;;;;;21.20;18.23;;;18.50;99.90;;;;;;5008771;28;20510;-52
2021/09/29 12:59:26;;;;;;;19.30;17.30;;;18.50;99.90;;;;;;5016187;23;20583;-52
2021/09/29 13:01:53;;;;;;;19.00;17.00;;;18.60;99.90;;;;;;4994984;28;20440;-52
2021/09/29 13:04:22;;;;;;;19.13;17.13;;;18.70;99.90;;;;;;4995855;28;20807;-52
2021/09/29 13:06:49;;;;;;;21.90;17.43;;;18.70;99.90;;;;;;4995802;28;20460;-52
2021/09/29 13:09:19;;;;;;;17.87;15.97;;;18.80;99.90;;;;;;4994973;28;20847;-51
2021/09/29 13:11:46;;;;;;;18.00;16.10;;;18.90;99.90;;;;;;4995698;28;20820;-51
2021/09/29 13:14:13;;;;;;;17.20;15.40;;;18.90;99.90;;;;;;4993707;28;20928;-51
2021/09/29 13:16:42;;;;;;;18.43;16.63;;;19.00;99.90;;;;;;4993264;28;20480;-51
2021/09/29 13:19:13;;;;;;;19.10;16.40;;;19.00;99.90;;;;;;4994428;28;20460;-52
2021/09/29 13:21:43;;;;;;;17.90;16.00;;;19.10;99.90;;;;;;4995242;28;20433;-52
2021/09/29 13:24:14;;;;;;;18.23;16.33;;;19.10;99.90;;;;;;4995140;28;20796;-52
2021/09/29 13:37:39;;;;;;;18.83;16.70;;;19.40;99.90;;;;;;4994502;28;20444;-52
2021/09/29 13:40:08;;;;;;;15.70;14.07;;;19.40;99.90;;;;;;4993304;28;20545;-52
2021/09/29 13:42:36;;;;;;;18.30;14.80;;;19.40;99.90;;;;;;4993064;28;20507;-50
2021/09/29 13:45:06;;;;;;;16.87;13.80;;;19.50;99.90;;;;;;4994557;28;20513;-52
2021/09/29 13:47:35;;;;;;;16.70;14.97;;;19.40;99.90;;;;;;4993473;28;20448;-52
2021/09/29 13:50:02;;;;;;;16.70;14.93;;;19.40;99.90;;;;;;4994839;28;20416;-50
2021/09/29 13:52:29;;;;;;;18.40;16.00;;;19.30;99.90;;;;;;4994798;28;20437;-52
2021/09/29 13:54:58;;;;;;;17.57;15.33;;;19.30;99.90;;;;;;4994249;28;20473;-51
2021/09/29 13:57:27;;;;;;;18.17;15.50;;;19.30;99.90;;;;;;4994522;28;20838;-51
2021/09/29 14:00:06;;;;;;;17.17;15.03;;;19.20;99.90;;;;;;4993892;28;20495;-52
2021/09/29 14:02:57;;;;;;;22.33;14.30;;;19.10;99.90;;;;;;4994427;28;20573;-52
2021/09/29 14:30:13;;;;;;;18.43;14.10;;;19.10;99.90;;;;;;4992782;28;20527;-51
2021/09/29 14:32:50;;;;;;;15.87;14.20;;;19.10;99.90;;;;;;4993023;28;20985;-51
2021/09/29 14:35:17;;;;;;;17.20;13.93;;;19.10;99.90;;;;;;4992275;28;20480;-51
2021/09/29 14:37:44;;;;;;;17.50;14.60;;;19.00;99.90;;;;;;4992754;28;20791;-52
2021/09/29 14:40:12;;;;;;;15.63;14.03;;;19.00;99.90;;;;;;4991951;28;20544;-52
2021/09/29 14:42:39;;;;;;;15.70;14.00;;;18.90;99.90;;;;;;4993236;28;20874;-51
2021/09/29 14:45:07;;;;;;;15.70;14.10;;;18.90;99.90;;;;;;4993548;28;20526;-52
2021/09/29 14:47:34;;;;;;;17.77;14.30;;;18.90;99.90;;;;;;4993001;28;20444;-52
2021/09/29 14:50:02;;;;;;;15.40;13.50;;;18.90;99.90;;;;;;4991569;28;20946;-51
2021/09/29 14:52:28;;;;;;;14.50;13.10;;;19.00;99.90;;;;;;4992956;28;20474;-51
2021/09/29 14:54:55;;;;;;;16.20;14.50;;;18.80;99.90;;;;;;4992931;28;20525;-52
2021/09/29 14:57:22;;;;;;;14.97;13.43;;;19.10;99.90;;;;;;4991787;28;20473;-51
2021/09/29 14:59:49;;;;;;;16.93;15.20;;;19.10;99.90;;;;;;4991239;28;20532;-51
2021/09/29 15:02:16;;;;;;;17.13;14.47;;;19.10;99.90;;;;;;4992991;28;20475;-51
2021/09/29 15:04:43;;;;;;;15.60;14.10;;;19.00;99.90;;;;;;4992785;28;20534;-50
2021/09/29 15:07:11;;;;;;;18.60;15.03;;;19.00;99.90;;;;;;4993189;28;20941;-51